sensor_id;sensor_type;location;lat;lon;timestamp;temperature;humidity
28336;DHT22;15592;53.656;7.276;2023-07-28T00:00:43;17.10;99.90
28336;DHT22;15592;53.656;7.276;2023-07-28T00:03:09;17.10;99.90
28336;DHT22;15592;53.656;7.276;2023-07-28T00:05:36;17.10;99.90
28336;DHT22;15592;53.656;7.276;2023-07-28T00:08:02;17.10;99.90
28336;DHT22;15592;53.656;7.276;2023-07-28T00:10:28;17.10;99.90
28336;DHT22;15592;53.656;7.276;2023-07-28T00:12:53;17.10;99.90
28336;DHT22;15592;53.656;7.276;2023-07-28T00:15:19;17.10;99.90
28336;DHT22;15592;53.656;7.276;2023-07-28T00:17:45;17.10;99.90
28336;DHT22;15592;53.656;7.276;2023-07-28T00:20:11;17.10;99.90
28336;DHT22;15592;53.656;7.276;2023-07-28T00:22:36;17.10;99.90
28336;DHT22;15592;53.656;7.276;2023-07-28T00:25:02;17.10;99.90
28336;DHT22;15592;53.656;7.276;2023-07-28T00:27:28;17.10;99.90
28336;DHT22;15592;53.656;7.276;2023-07-28T00:29:54;17.10;99.90
28336;DHT22;15592;53.656;7.276;2023-07-28T00:32:19;17.10;99.90
28336;DHT22;15592;53.656;7.276;2023-07-28T00:34:46;17.10;99.90
28336;DHT22;15592;53.656;7.276;2023-07-28T00:37:12;17.10;99.90
28336;DHT22;15592;53.656;7.276;2023-07-28T00:39:37;17.10;99.90
28336;DHT22;15592;53.656;7.276;2023-07-28T00:42:03;17.10;99.90
28336;DHT22;15592;53.656;7.276;2023-07-28T00:44:29;17.10;99.90
28336;DHT22;15592;53.656;7.276;2023-07-28T00:46:55;17.10;99.90
28336;DHT22;15592;53.656;7.276;2023-07-28T00:49:21;17.10;99.90
28336;DHT22;15592;53.656;7.276;2023-07-28T00:51:48;17.10;99.90
28336;DHT22;15592;53.656;7.276;2023-07-28T00:54:14;17.10;99.90
28336;DHT22;15592;53.656;7.276;2023-07-28T00:56:40;17.10;99.90
28336;DHT22;15592;53.656;7.276;2023-07-28T00:59:06;17.10;99.90
28336;DHT22;15592;53.656;7.276;2023-07-28T01:01:31;17.10;99.90
28336;DHT22;15592;53.656;7.276;2023-07-28T01:03:57;17.10;99.90
28336;DHT22;15592;53.656;7.276;2023-07-28T01:09:13;17.10;99.90
28336;DHT22;15592;53.656;7.276;2023-07-28T01:11:53;17.10;99.90
28336;DHT22;15592;53.656;7.276;2023-07-28T01:14:19;17.10;99.90
28336;DHT22;15592;53.656;7.276;2023-07-28T01:16:44;17.10;99.90
28336;DHT22;15592;53.656;7.276;2023-07-28T01:19:11;17.10;99.90
28336;DHT22;15592;53.656;7.276;2023-07-28T01:21:38;17.10;99.90
28336;DHT22;15592;53.656;7.276;2023-07-28T01:24:29;17.10;99.90
28336;DHT22;15592;53.656;7.276;2023-07-28T01:26:57;17.10;99.90
28336;DHT22;15592;53.656;7.276;2023-07-28T01:29:22;17.10;99.90
28336;DHT22;15592;53.656;7.276;2023-07-28T01:31:49;17.10;99.90
28336;DHT22;15592;53.656;7.276;2023-07-28T01:34:16;17.10;99.90
28336;DHT22;15592;53.656;7.276;2023-07-28T01:36:41;17.10;99.90
28336;DHT22;15592;53.656;7.276;2023-07-28T01:39:07;17.10;99.90
28336;DHT22;15592;53.656;7.276;2023-07-28T01:41:33;17.10;99.90
28336;DHT22;15592;53.656;7.276;2023-07-28T01:43:58;17.10;99.90
28336;DHT22;15592;53.656;7.276;2023-07-28T01:46:24;17.10;99.90
28336;DHT22;15592;53.656;7.276;2023-07-28T01:48:50;17.10;99.90
28336;DHT22;15592;53.656;7.276;2023-07-28T01:51:15;17.10;99.90
28336;DHT22;15592;53.656;7.276;2023-07-28T01:53:41;17.10;99.90
28336;DHT22;15592;53.656;7.276;2023-07-28T01:56:06;17.10;99.90
28336;DHT22;15592;53.656;7.276;2023-07-28T01:58:32;17.10;99.90
28336;DHT22;15592;53.656;7.276;2023-07-28T02:00:57;17.00;99.90
28336;DHT22;15592;53.656;7.276;2023-07-28T02:03:23;17.00;99.90
28336;DHT22;15592;53.656;7.276;2023-07-28T02:05:49;17.00;99.90
28336;DHT22;15592;53.656;7.276;2023-07-28T02:08:15;17.00;99.90
28336;DHT22;15592;53.656;7.276;2023-07-28T02:10:40;17.00;99.90
28336;DHT22;15592;53.656;7.276;2023-07-28T02:13:06;17.00;99.90
28336;DHT22;15592;53.656;7.276;2023-07-28T02:15:32;17.00;99.90
28336;DHT22;15592;53.656;7.276;2023-07-28T02:17:57;17.00;99.90
28336;DHT22;15592;53.656;7.276;2023-07-28T02:20:23;16.90;99.90
28336;DHT22;15592;53.656;7.276;2023-07-28T02:22:48;16.90;99.90
28336;DHT22;15592;53.656;7.276;2023-07-28T02:25:14;16.90;99.90
28336;DHT22;15592;53.656;7.276;2023-07-28T02:27:40;16.90;99.90
28336;DHT22;15592;53.656;7.276;2023-07-28T02:30:06;16.80;99.90
28336;DHT22;15592;53.656;7.276;2023-07-28T02:32:32;16.80;99.90
28336;DHT22;15592;53.656;7.276;2023-07-28T02:34:58;16.80;99.90
28336;DHT22;15592;53.656;7.276;2023-07-28T02:37:25;16.80;99.90
28336;DHT22;15592;53.656;7.276;2023-07-28T02:39:50;16.80;99.90
28336;DHT22;15592;53.656;7.276;2023-07-28T02:42:16;16.80;99.90
28336;DHT22;15592;53.656;7.276;2023-07-28T02:44:42;16.80;99.90
28336;DHT22;15592;53.656;7.276;2023-07-28T02:47:08;16.80;99.90
28336;DHT22;15592;53.656;7.276;2023-07-28T02:49:34;16.80;99.90
28336;DHT22;15592;53.656;7.276;2023-07-28T02:51:59;16.80;99.90
28336;DHT22;15592;53.656;7.276;2023-07-28T02:54:25;16.80;99.90
28336;DHT22;15592;53.656;7.276;2023-07-28T02:56:51;16.80;99.90
28336;DHT22;15592;53.656;7.276;2023-07-28T02:59:17;16.80;99.90
28336;DHT22;15592;53.656;7.276;2023-07-28T03:01:43;16.80;99.90
28336;DHT22;15592;53.656;7.276;2023-07-28T03:04:09;16.80;99.90
28336;DHT22;15592;53.656;7.276;2023-07-28T03:06:34;16.90;99.90
28336;DHT22;15592;53.656;7.276;2023-07-28T03:09:00;16.90;99.90
28336;DHT22;15592;53.656;7.276;2023-07-28T03:11:25;16.90;99.90
28336;DHT22;15592;53.656;7.276;2023-07-28T03:13:51;16.90;99.90
28336;DHT22;15592;53.656;7.276;2023-07-28T03:16:17;16.90;99.90
28336;DHT22;15592;53.656;7.276;2023-07-28T03:18:42;16.90;99.90
28336;DHT22;15592;53.656;7.276;2023-07-28T03:21:11;16.90;99.90
28336;DHT22;15592;53.656;7.276;2023-07-28T03:23:37;16.90;99.90
28336;DHT22;15592;53.656;7.276;2023-07-28T03:26:02;16.90;99.90
28336;DHT22;15592;53.656;7.276;2023-07-28T03:28:28;16.90;99.90
28336;DHT22;15592;53.656;7.276;2023-07-28T03:30:53;16.90;99.90
28336;DHT22;15592;53.656;7.276;2023-07-28T03:33:19;16.90;99.90
28336;DHT22;15592;53.656;7.276;2023-07-28T03:35:45;16.90;99.90
28336;DHT22;15592;53.656;7.276;2023-07-28T03:38:10;16.90;99.90
28336;DHT22;15592;53.656;7.276;2023-07-28T03:40:36;17.00;99.90
28336;DHT22;15592;53.656;7.276;2023-07-28T03:43:02;16.90;99.90
28336;DHT22;15592;53.656;7.276;2023-07-28T03:45:28;16.90;99.90
28336;DHT22;15592;53.656;7.276;2023-07-28T03:47:54;16.90;99.90
28336;DHT22;15592;53.656;7.276;2023-07-28T03:50:20;16.90;99.90
28336;DHT22;15592;53.656;7.276;2023-07-28T03:52:45;16.90;99.90
28336;DHT22;15592;53.656;7.276;2023-07-28T03:55:11;16.90;99.90
28336;DHT22;15592;53.656;7.276;2023-07-28T03:57:37;16.90;99.90
28336;DHT22;15592;53.656;7.276;2023-07-28T04:00:06;16.90;99.90
28336;DHT22;15592;53.656;7.276;2023-07-28T04:02:32;16.90;99.90
28336;DHT22;15592;53.656;7.276;2023-07-28T04:04:58;16.90;99.90
28336;DHT22;15592;53.656;7.276;2023-07-28T04:07:50;16.90;99.90
28336;DHT22;15592;53.656;7.276;2023-07-28T04:10:16;16.90;99.90
28336;DHT22;15592;53.656;7.276;2023-07-28T04:12:44;16.90;99.90
28336;DHT22;15592;53.656;7.276;2023-07-28T04:15:36;16.90;99.90
28336;DHT22;15592;53.656;7.276;2023-07-28T04:18:02;16.90;99.90
28336;DHT22;15592;53.656;7.276;2023-07-28T04:20:27;16.90;99.90
28336;DHT22;15592;53.656;7.276;2023-07-28T04:23:00;16.90;99.90
28336;DHT22;15592;53.656;7.276;2023-07-28T04:25:26;16.90;99.90
28336;DHT22;15592;53.656;7.276;2023-07-28T04:27:54;16.90;99.90
28336;DHT22;15592;53.656;7.276;2023-07-28T04:30:24;16.90;99.90
28336;DHT22;15592;53.656;7.276;2023-07-28T04:33:12;16.90;99.90
28336;DHT22;15592;53.656;7.276;2023-07-28T04:35:46;17.00;99.90
28336;DHT22;15592;53.656;7.276;2023-07-28T04:38:12;16.90;99.90
28336;DHT22;15592;53.656;7.276;2023-07-28T04:40:38;16.90;99.90
28336;DHT22;15592;53.656;7.276;2023-07-28T04:43:03;17.00;99.90
28336;DHT22;15592;53.656;7.276;2023-07-28T04:45:29;17.00;99.90
28336;DHT22;15592;53.656;7.276;2023-07-28T04:47:54;17.00;99.90
28336;DHT22;15592;53.656;7.276;2023-07-28T04:50:20;17.00;99.90
28336;DHT22;15592;53.656;7.276;2023-07-28T04:52:46;17.00;99.90
28336;DHT22;15592;53.656;7.276;2023-07-28T04:55:14;17.00;99.90
28336;DHT22;15592;53.656;7.276;2023-07-28T04:57:43;17.00;99.90
28336;DHT22;15592;53.656;7.276;2023-07-28T05:00:14;17.10;99.90
28336;DHT22;15592;53.656;7.276;2023-07-28T05:02:45;17.10;99.90
28336;DHT22;15592;53.656;7.276;2023-07-28T05:05:14;17.10;99.90
28336;DHT22;15592;53.656;7.276;2023-07-28T05:07:40;17.10;99.90
28336;DHT22;15592;53.656;7.276;2023-07-28T05:10:06;17.10;99.90
28336;DHT22;15592;53.656;7.276;2023-07-28T05:12:31;17.10;99.90
28336;DHT22;15592;53.656;7.276;2023-07-28T05:14:57;17.10;99.90
28336;DHT22;15592;53.656;7.276;2023-07-28T05:17:22;17.10;99.90
28336;DHT22;15592;53.656;7.276;2023-07-28T05:20:20;17.10;99.90
28336;DHT22;15592;53.656;7.276;2023-07-28T05:22:46;17.10;99.90
28336;DHT22;15592;53.656;7.276;2023-07-28T05:25:11;17.10;99.90
28336;DHT22;15592;53.656;7.276;2023-07-28T05:27:40;17.20;99.90
28336;DHT22;15592;53.656;7.276;2023-07-28T05:30:06;17.20;99.90
28336;DHT22;15592;53.656;7.276;2023-07-28T05:32:32;17.20;99.90
28336;DHT22;15592;53.656;7.276;2023-07-28T05:34:58;17.30;99.90
28336;DHT22;15592;53.656;7.276;2023-07-28T05:37:24;17.30;99.90
28336;DHT22;15592;53.656;7.276;2023-07-28T05:39:50;17.40;99.90
28336;DHT22;15592;53.656;7.276;2023-07-28T05:42:15;17.40;99.90
28336;DHT22;15592;53.656;7.276;2023-07-28T05:44:41;17.40;99.90
28336;DHT22;15592;53.656;7.276;2023-07-28T05:47:07;17.50;99.90
28336;DHT22;15592;53.656;7.276;2023-07-28T05:49:32;17.50;99.90
28336;DHT22;15592;53.656;7.276;2023-07-28T05:51:58;17.40;99.90
28336;DHT22;15592;53.656;7.276;2023-07-28T05:54:23;17.50;99.90
28336;DHT22;15592;53.656;7.276;2023-07-28T05:56:49;17.50;99.90
28336;DHT22;15592;53.656;7.276;2023-07-28T05:59:15;17.50;99.90
28336;DHT22;15592;53.656;7.276;2023-07-28T06:01:41;17.50;99.90
28336;DHT22;15592;53.656;7.276;2023-07-28T06:04:06;17.60;99.90
28336;DHT22;15592;53.656;7.276;2023-07-28T06:06:32;17.50;99.90
28336;DHT22;15592;53.656;7.276;2023-07-28T06:08:57;17.60;99.90
28336;DHT22;15592;53.656;7.276;2023-07-28T06:11:23;17.50;99.90
28336;DHT22;15592;53.656;7.276;2023-07-28T06:13:49;17.60;99.90
28336;DHT22;15592;53.656;7.276;2023-07-28T06:16:15;17.50;99.90
28336;DHT22;15592;53.656;7.276;2023-07-28T06:18:41;17.50;99.90
28336;DHT22;15592;53.656;7.276;2023-07-28T06:21:07;17.60;99.90
28336;DHT22;15592;53.656;7.276;2023-07-28T06:23:33;17.50;99.90
28336;DHT22;15592;53.656;7.276;2023-07-28T06:25:58;17.50;99.90
28336;DHT22;15592;53.656;7.276;2023-07-28T06:28:24;17.60;99.90
28336;DHT22;15592;53.656;7.276;2023-07-28T06:30:54;17.60;99.90
28336;DHT22;15592;53.656;7.276;2023-07-28T06:33:20;17.50;99.90
28336;DHT22;15592;53.656;7.276;2023-07-28T06:35:46;17.50;99.90
28336;DHT22;15592;53.656;7.276;2023-07-28T06:38:12;17.50;99.90
28336;DHT22;15592;53.656;7.276;2023-07-28T06:40:37;17.50;99.90
28336;DHT22;15592;53.656;7.276;2023-07-28T06:43:03;17.50;99.90
28336;DHT22;15592;53.656;7.276;2023-07-28T06:45:28;17.50;99.90
28336;DHT22;15592;53.656;7.276;2023-07-28T06:47:54;17.50;99.90
28336;DHT22;15592;53.656;7.276;2023-07-28T06:50:20;17.60;99.90
28336;DHT22;15592;53.656;7.276;2023-07-28T06:52:46;17.50;99.90
28336;DHT22;15592;53.656;7.276;2023-07-28T06:55:14;17.50;99.90
28336;DHT22;15592;53.656;7.276;2023-07-28T06:57:40;17.50;99.90
28336;DHT22;15592;53.656;7.276;2023-07-28T07:00:07;17.50;99.90
28336;DHT22;15592;53.656;7.276;2023-07-28T07:02:35;17.50;99.90
28336;DHT22;15592;53.656;7.276;2023-07-28T07:05:01;17.60;99.90
28336;DHT22;15592;53.656;7.276;2023-07-28T07:07:26;17.60;99.90
28336;DHT22;15592;53.656;7.276;2023-07-28T07:09:52;17.70;99.90
28336;DHT22;15592;53.656;7.276;2023-07-28T07:12:18;17.60;99.90
28336;DHT22;15592;53.656;7.276;2023-07-28T07:14:44;17.60;99.90
28336;DHT22;15592;53.656;7.276;2023-07-28T07:17:10;17.70;99.90
28336;DHT22;15592;53.656;7.276;2023-07-28T07:19:36;17.70;99.90
28336;DHT22;15592;53.656;7.276;2023-07-28T07:22:02;17.70;99.90
28336;DHT22;15592;53.656;7.276;2023-07-28T07:24:28;17.70;99.90
28336;DHT22;15592;53.656;7.276;2023-07-28T07:26:54;17.80;99.90
28336;DHT22;15592;53.656;7.276;2023-07-28T07:29:19;17.80;99.90
28336;DHT22;15592;53.656;7.276;2023-07-28T07:31:45;17.90;99.90
28336;DHT22;15592;53.656;7.276;2023-07-28T07:34:11;17.80;99.90
28336;DHT22;15592;53.656;7.276;2023-07-28T07:36:36;17.80;99.90
28336;DHT22;15592;53.656;7.276;2023-07-28T07:39:02;17.90;99.90
28336;DHT22;15592;53.656;7.276;2023-07-28T07:41:30;17.90;99.90
28336;DHT22;15592;53.656;7.276;2023-07-28T07:43:56;18.00;99.90
28336;DHT22;15592;53.656;7.276;2023-07-28T07:46:23;18.00;99.90
28336;DHT22;15592;53.656;7.276;2023-07-28T07:48:49;17.90;99.90
28336;DHT22;15592;53.656;7.276;2023-07-28T07:51:15;18.00;99.90
28336;DHT22;15592;53.656;7.276;2023-07-28T07:53:40;18.00;99.90
28336;DHT22;15592;53.656;7.276;2023-07-28T07:56:07;18.00;99.90
28336;DHT22;15592;53.656;7.276;2023-07-28T07:58:33;18.10;99.90
28336;DHT22;15592;53.656;7.276;2023-07-28T08:00:59;18.20;99.90
28336;DHT22;15592;53.656;7.276;2023-07-28T08:03:25;18.20;99.90
28336;DHT22;15592;53.656;7.276;2023-07-28T08:05:51;18.20;99.90
28336;DHT22;15592;53.656;7.276;2023-07-28T08:08:17;18.20;99.90
28336;DHT22;15592;53.656;7.276;2023-07-28T08:10:48;18.10;99.90
28336;DHT22;15592;53.656;7.276;2023-07-28T08:13:14;18.10;99.90
28336;DHT22;15592;53.656;7.276;2023-07-28T08:15:44;18.10;99.90
28336;DHT22;15592;53.656;7.276;2023-07-28T08:18:11;18.10;99.90
28336;DHT22;15592;53.656;7.276;2023-07-28T08:20:37;18.10;99.90
28336;DHT22;15592;53.656;7.276;2023-07-28T08:23:03;18.20;99.90
28336;DHT22;15592;53.656;7.276;2023-07-28T08:25:28;18.10;99.90
28336;DHT22;15592;53.656;7.276;2023-07-28T08:27:54;18.20;99.90
28336;DHT22;15592;53.656;7.276;2023-07-28T08:30:20;18.20;99.90
28336;DHT22;15592;53.656;7.276;2023-07-28T08:32:45;18.20;99.90
28336;DHT22;15592;53.656;7.276;2023-07-28T08:35:11;18.30;99.90
28336;DHT22;15592;53.656;7.276;2023-07-28T08:37:37;18.20;99.90
28336;DHT22;15592;53.656;7.276;2023-07-28T08:40:03;18.20;99.90
28336;DHT22;15592;53.656;7.276;2023-07-28T08:42:33;18.30;99.90
28336;DHT22;15592;53.656;7.276;2023-07-28T08:45:01;18.40;99.90
28336;DHT22;15592;53.656;7.276;2023-07-28T08:47:27;18.50;99.90
28336;DHT22;15592;53.656;7.276;2023-07-28T08:49:52;18.50;99.90
28336;DHT22;15592;53.656;7.276;2023-07-28T08:52:18;18.60;99.90
28336;DHT22;15592;53.656;7.276;2023-07-28T08:54:44;18.70;99.90
28336;DHT22;15592;53.656;7.276;2023-07-28T08:57:10;18.70;99.90
28336;DHT22;15592;53.656;7.276;2023-07-28T08:59:36;18.70;99.90
28336;DHT22;15592;53.656;7.276;2023-07-28T09:02:09;18.70;99.90
28336;DHT22;15592;53.656;7.276;2023-07-28T09:04:35;18.70;99.90
28336;DHT22;15592;53.656;7.276;2023-07-28T09:07:04;18.70;99.90
28336;DHT22;15592;53.656;7.276;2023-07-28T09:09:32;18.70;99.90
28336;DHT22;15592;53.656;7.276;2023-07-28T09:11:59;18.70;99.90
28336;DHT22;15592;53.656;7.276;2023-07-28T09:14:25;18.70;99.90
28336;DHT22;15592;53.656;7.276;2023-07-28T09:16:51;18.80;99.90
28336;DHT22;15592;53.656;7.276;2023-07-28T09:19:17;18.90;99.90
28336;DHT22;15592;53.656;7.276;2023-07-28T09:21:45;18.90;99.90
28336;DHT22;15592;53.656;7.276;2023-07-28T09:24:12;18.90;99.90
28336;DHT22;15592;53.656;7.276;2023-07-28T09:26:42;18.90;99.90
28336;DHT22;15592;53.656;7.276;2023-07-28T09:29:18;18.90;99.90
28336;DHT22;15592;53.656;7.276;2023-07-28T09:31:46;18.90;99.90
28336;DHT22;15592;53.656;7.276;2023-07-28T09:34:12;18.90;99.90
28336;DHT22;15592;53.656;7.276;2023-07-28T09:36:39;18.90;99.90
28336;DHT22;15592;53.656;7.276;2023-07-28T09:39:07;18.90;99.90
28336;DHT22;15592;53.656;7.276;2023-07-28T09:41:37;19.00;99.90
28336;DHT22;15592;53.656;7.276;2023-07-28T09:44:04;19.00;99.90
28336;DHT22;15592;53.656;7.276;2023-07-28T09:46:33;19.00;99.90
28336;DHT22;15592;53.656;7.276;2023-07-28T09:49:10;19.10;99.90
28336;DHT22;15592;53.656;7.276;2023-07-28T09:51:41;19.10;99.90
28336;DHT22;15592;53.656;7.276;2023-07-28T09:54:23;19.20;99.90
28336;DHT22;15592;53.656;7.276;2023-07-28T09:56:56;19.20;99.90
28336;DHT22;15592;53.656;7.276;2023-07-28T09:59:29;19.10;99.90
28336;DHT22;15592;53.656;7.276;2023-07-28T10:01:57;19.00;99.90
28336;DHT22;15592;53.656;7.276;2023-07-28T10:04:23;19.00;99.90
28336;DHT22;15592;53.656;7.276;2023-07-28T10:06:51;19.00;99.90
28336;DHT22;15592;53.656;7.276;2023-07-28T10:09:23;19.10;99.90
28336;DHT22;15592;53.656;7.276;2023-07-28T10:11:49;19.00;99.90
28336;DHT22;15592;53.656;7.276;2023-07-28T10:14:35;19.00;99.90
28336;DHT22;15592;53.656;7.276;2023-07-28T10:17:04;18.90;99.90
28336;DHT22;15592;53.656;7.276;2023-07-28T10:19:39;18.90;99.90
28336;DHT22;15592;53.656;7.276;2023-07-28T10:22:10;18.80;99.90
28336;DHT22;15592;53.656;7.276;2023-07-28T10:24:56;18.80;99.90
28336;DHT22;15592;53.656;7.276;2023-07-28T10:27:35;18.80;99.90
28336;DHT22;15592;53.656;7.276;2023-07-28T10:30:09;18.80;99.90
28336;DHT22;15592;53.656;7.276;2023-07-28T10:32:45;18.80;99.90
28336;DHT22;15592;53.656;7.276;2023-07-28T10:37:44;18.90;99.90
28336;DHT22;15592;53.656;7.276;2023-07-28T10:42:55;19.10;99.90
28336;DHT22;15592;53.656;7.276;2023-07-28T10:45:29;19.10;99.90
28336;DHT22;15592;53.656;7.276;2023-07-28T10:47:57;19.10;99.90
28336;DHT22;15592;53.656;7.276;2023-07-28T10:50:29;19.10;99.90
28336;DHT22;15592;53.656;7.276;2023-07-28T10:52:55;19.20;99.90
28336;DHT22;15592;53.656;7.276;2023-07-28T10:55:24;19.20;99.90
28336;DHT22;15592;53.656;7.276;2023-07-28T10:57:52;19.10;99.90
28336;DHT22;15592;53.656;7.276;2023-07-28T11:00:19;19.10;99.90
28336;DHT22;15592;53.656;7.276;2023-07-28T11:02:49;19.10;99.90
28336;DHT22;15592;53.656;7.276;2023-07-28T11:05:27;19.10;99.90
28336;DHT22;15592;53.656;7.276;2023-07-28T11:08:02;19.10;99.90
28336;DHT22;15592;53.656;7.276;2023-07-28T11:10:29;19.10;99.90
28336;DHT22;15592;53.656;7.276;2023-07-28T11:12:58;19.20;99.90
28336;DHT22;15592;53.656;7.276;2023-07-28T11:15:25;19.20;99.90
28336;DHT22;15592;53.656;7.276;2023-07-28T11:17:52;19.10;99.90
28336;DHT22;15592;53.656;7.276;2023-07-28T11:20:18;19.20;99.90
28336;DHT22;15592;53.656;7.276;2023-07-28T11:22:45;19.30;99.90
28336;DHT22;15592;53.656;7.276;2023-07-28T11:25:11;19.40;99.90
28336;DHT22;15592;53.656;7.276;2023-07-28T11:27:38;19.40;99.90
28336;DHT22;15592;53.656;7.276;2023-07-28T11:30:05;19.50;99.90
28336;DHT22;15592;53.656;7.276;2023-07-28T11:32:35;19.50;99.90
28336;DHT22;15592;53.656;7.276;2023-07-28T11:35:08;19.60;99.90
28336;DHT22;15592;53.656;7.276;2023-07-28T11:37:39;19.70;99.90
28336;DHT22;15592;53.656;7.276;2023-07-28T11:40:07;19.70;99.90
28336;DHT22;15592;53.656;7.276;2023-07-28T11:42:40;19.80;99.90
28336;DHT22;15592;53.656;7.276;2023-07-28T11:45:07;19.80;99.90
28336;DHT22;15592;53.656;7.276;2023-07-28T11:47:34;19.80;99.90
28336;DHT22;15592;53.656;7.276;2023-07-28T11:49:59;19.80;99.90
28336;DHT22;15592;53.656;7.276;2023-07-28T11:52:32;19.80;99.90
28336;DHT22;15592;53.656;7.276;2023-07-28T11:54:59;19.80;99.90
28336;DHT22;15592;53.656;7.276;2023-07-28T11:57:26;19.90;99.90
28336;DHT22;15592;53.656;7.276;2023-07-28T11:59:53;19.90;99.90
28336;DHT22;15592;53.656;7.276;2023-07-28T12:02:29;19.90;99.90
28336;DHT22;15592;53.656;7.276;2023-07-28T12:04:55;20.00;99.90
28336;DHT22;15592;53.656;7.276;2023-07-28T12:07:33;20.10;99.90
28336;DHT22;15592;53.656;7.276;2023-07-28T12:10:06;20.10;99.90
28336;DHT22;15592;53.656;7.276;2023-07-28T12:12:45;20.20;99.90
28336;DHT22;15592;53.656;7.276;2023-07-28T12:15:21;20.20;99.90
28336;DHT22;15592;53.656;7.276;2023-07-28T12:18:20;20.20;99.90
28336;DHT22;15592;53.656;7.276;2023-07-28T12:20:53;20.20;99.90
28336;DHT22;15592;53.656;7.276;2023-07-28T12:23:20;20.20;99.90
28336;DHT22;15592;53.656;7.276;2023-07-28T12:25:47;20.20;99.90
28336;DHT22;15592;53.656;7.276;2023-07-28T12:28:13;20.20;99.90
28336;DHT22;15592;53.656;7.276;2023-07-28T12:30:39;20.20;99.90
28336;DHT22;15592;53.656;7.276;2023-07-28T12:33:06;20.30;99.90
28336;DHT22;15592;53.656;7.276;2023-07-28T12:35:32;20.40;99.90
28336;DHT22;15592;53.656;7.276;2023-07-28T12:38:00;20.50;99.90
28336;DHT22;15592;53.656;7.276;2023-07-28T12:40:28;20.50;99.90
28336;DHT22;15592;53.656;7.276;2023-07-28T12:42:57;20.50;99.90
28336;DHT22;15592;53.656;7.276;2023-07-28T12:45:23;20.60;99.90
28336;DHT22;15592;53.656;7.276;2023-07-28T12:47:51;20.50;99.90
28336;DHT22;15592;53.656;7.276;2023-07-28T12:50:18;20.60;99.90
28336;DHT22;15592;53.656;7.276;2023-07-28T12:52:44;20.70;99.90
28336;DHT22;15592;53.656;7.276;2023-07-28T12:55:09;20.80;99.90
28336;DHT22;15592;53.656;7.276;2023-07-28T12:57:35;20.70;99.90
28336;DHT22;15592;53.656;7.276;2023-07-28T13:00:01;20.70;99.90
28336;DHT22;15592;53.656;7.276;2023-07-28T13:02:26;20.70;99.90
28336;DHT22;15592;53.656;7.276;2023-07-28T13:04:52;20.70;99.90
28336;DHT22;15592;53.656;7.276;2023-07-28T13:07:17;20.70;99.90
28336;DHT22;15592;53.656;7.276;2023-07-28T13:09:44;20.70;99.90
28336;DHT22;15592;53.656;7.276;2023-07-28T13:12:10;20.60;99.90
28336;DHT22;15592;53.656;7.276;2023-07-28T13:14:36;20.60;99.90
28336;DHT22;15592;53.656;7.276;2023-07-28T13:17:02;20.50;99.90
28336;DHT22;15592;53.656;7.276;2023-07-28T13:19:27;20.50;99.90
28336;DHT22;15592;53.656;7.276;2023-07-28T13:21:53;20.60;99.90
28336;DHT22;15592;53.656;7.276;2023-07-28T13:24:18;20.60;99.90
28336;DHT22;15592;53.656;7.276;2023-07-28T13:26:44;20.60;99.90
28336;DHT22;15592;53.656;7.276;2023-07-28T13:29:10;20.60;99.90
28336;DHT22;15592;53.656;7.276;2023-07-28T13:31:35;20.50;99.90
28336;DHT22;15592;53.656;7.276;2023-07-28T13:34:01;20.50;99.90
28336;DHT22;15592;53.656;7.276;2023-07-28T13:36:28;20.60;99.90
28336;DHT22;15592;53.656;7.276;2023-07-28T13:38:53;20.70;99.90
28336;DHT22;15592;53.656;7.276;2023-07-28T13:41:19;20.60;99.90
28336;DHT22;15592;53.656;7.276;2023-07-28T13:43:45;20.60;99.90
28336;DHT22;15592;53.656;7.276;2023-07-28T13:46:11;20.60;99.90
28336;DHT22;15592;53.656;7.276;2023-07-28T13:48:37;20.60;99.90
28336;DHT22;15592;53.656;7.276;2023-07-28T13:51:04;20.60;99.90
28336;DHT22;15592;53.656;7.276;2023-07-28T13:53:30;20.70;99.90
28336;DHT22;15592;53.656;7.276;2023-07-28T13:55:56;20.70;99.90
28336;DHT22;15592;53.656;7.276;2023-07-28T13:58:21;20.80;99.90
28336;DHT22;15592;53.656;7.276;2023-07-28T14:00:47;20.70;99.90
28336;DHT22;15592;53.656;7.276;2023-07-28T14:03:13;20.70;99.90
28336;DHT22;15592;53.656;7.276;2023-07-28T14:05:39;20.60;99.90
28336;DHT22;15592;53.656;7.276;2023-07-28T14:08:05;20.50;99.90
28336;DHT22;15592;53.656;7.276;2023-07-28T14:10:31;20.50;99.90
28336;DHT22;15592;53.656;7.276;2023-07-28T14:12:58;20.40;99.90
28336;DHT22;15592;53.656;7.276;2023-07-28T14:15:24;20.50;99.90
28336;DHT22;15592;53.656;7.276;2023-07-28T14:17:49;20.50;99.90
28336;DHT22;15592;53.656;7.276;2023-07-28T14:20:15;20.50;99.90
28336;DHT22;15592;53.656;7.276;2023-07-28T14:22:41;20.50;99.90
28336;DHT22;15592;53.656;7.276;2023-07-28T14:25:07;20.50;99.90
28336;DHT22;15592;53.656;7.276;2023-07-28T14:27:32;20.50;99.90
28336;DHT22;15592;53.656;7.276;2023-07-28T14:29:58;20.50;99.90
28336;DHT22;15592;53.656;7.276;2023-07-28T14:32:24;20.50;99.90
28336;DHT22;15592;53.656;7.276;2023-07-28T14:34:49;20.50;99.90
28336;DHT22;15592;53.656;7.276;2023-07-28T14:37:15;20.50;99.90
28336;DHT22;15592;53.656;7.276;2023-07-28T14:39:41;20.50;99.90
28336;DHT22;15592;53.656;7.276;2023-07-28T14:42:06;20.50;99.90
28336;DHT22;15592;53.656;7.276;2023-07-28T14:44:32;20.50;99.90
28336;DHT22;15592;53.656;7.276;2023-07-28T14:46:58;20.50;99.90
28336;DHT22;15592;53.656;7.276;2023-07-28T14:49:23;20.50;99.90
28336;DHT22;15592;53.656;7.276;2023-07-28T14:52:07;20.50;99.90
28336;DHT22;15592;53.656;7.276;2023-07-28T14:54:51;20.50;99.90
28336;DHT22;15592;53.656;7.276;2023-07-28T14:57:17;20.40;99.90
28336;DHT22;15592;53.656;7.276;2023-07-28T14:59:42;20.40;99.90
28336;DHT22;15592;53.656;7.276;2023-07-28T15:02:08;20.50;99.90
28336;DHT22;15592;53.656;7.276;2023-07-28T15:04:34;20.50;99.90
28336;DHT22;15592;53.656;7.276;2023-07-28T15:06:59;20.50;99.90
28336;DHT22;15592;53.656;7.276;2023-07-28T15:09:25;20.50;99.90
28336;DHT22;15592;53.656;7.276;2023-07-28T15:11:51;20.50;99.90
28336;DHT22;15592;53.656;7.276;2023-07-28T15:14:16;20.50;99.90
28336;DHT22;15592;53.656;7.276;2023-07-28T15:16:42;20.60;99.90
28336;DHT22;15592;53.656;7.276;2023-07-28T15:19:07;20.60;99.90
28336;DHT22;15592;53.656;7.276;2023-07-28T15:21:33;20.60;99.90
28336;DHT22;15592;53.656;7.276;2023-07-28T15:23:59;20.60;99.90
28336;DHT22;15592;53.656;7.276;2023-07-28T15:26:24;20.60;99.90
28336;DHT22;15592;53.656;7.276;2023-07-28T15:28:50;20.60;99.90
28336;DHT22;15592;53.656;7.276;2023-07-28T15:31:16;20.60;99.90
28336;DHT22;15592;53.656;7.276;2023-07-28T15:33:41;20.70;99.90
28336;DHT22;15592;53.656;7.276;2023-07-28T15:36:07;20.70;99.90
28336;DHT22;15592;53.656;7.276;2023-07-28T15:38:32;20.70;99.90